ZUCK

Chongqing Jiangbei International Airport

Chongqing, China
TAF AMD ZUCK 212142Z 2200/2224 03002MPS 0600 FG FEW003 SCT007 TX12/2208Z TN04/2200Z TEMPO 2200/2202 0400 FG FEW002 SCT005 BECMG 2202/2203 1000 BR BECMG 2203/2204 3500 SCT040
Issued Valid From Valid To
Jan-21 @ 21:42 UTC
(3 hours ago)
Jan-22 @ 00:00 UTC
(23 minutes ago)
Jan-23 @ 00:00 UTC
(in 24 hours)
Jan-22 @ 00:00 to Jan-22 @ 02:00
TAF AMD ZUCK 212142Z 2200/2224 03002MPS 0600 FG FEW003 SCT007 TX12/2208Z TN04/2200Z
Wind Visibility Clouds Conditions
30° at 4 knots 595 meters
  • Few at 300' AGL
  • Scattered at 700' AGL
  • Fog
Temporary Jan-22 @ 00:00 to Jan-22 @ 02:00
TEMPO 2200/2202 0400 FG FEW002 SCT005
Visibility Clouds Conditions
402 meters
  • Few at 200' AGL
  • Scattered at 500' AGL
  • Fog
Becoming Jan-22 @ 02:00 to Jan-22 @ 03:00
BECMG 2202/2203 1000 BR
Wind Visibility Clouds Conditions
30° at 4 knots 998 meters
  • Few at 300' AGL
  • Scattered at 700' AGL
  • Mist
Becoming Jan-22 @ 03:00 to Jan-23 @ 00:00
BECMG 2203/2204 3500 SCT040
Wind Visibility Clouds Conditions
30° at 4 knots 3,492 meters
  • Scattered at 4,000' AGL
  • Mist
TAF AMD ZUCK 212142Z 2200/2224 03002MPS 0600 FG FEW003 SCT007 TX12/2208Z TN04/2200Z TEMPO 2200/2202 0400 FG FEW002 SCT005 BECMG 2202/2203 1000 BR BECMG 2203/2204 3500 SCT040
Issued Jan-21 @ 21:42 UTC
(3 hours ago)
Valid From Jan-22 @ 00:00 UTC
(23 minutes ago)
Valid To Jan-23 @ 00:00 UTC
(in 24 hours)
Jan-22 @ 00:00 - Jan-22 @ 02:00
Wind Visibility
30° at 4 knots 595 meters
Clouds
  • Few at 300' AGL
  • Scattered at 700' AGL
Conditions
  • Fog
Temporary Jan-22 @ 00:00 - Jan-22 @ 02:00
Clouds
  • Few at 200' AGL
  • Scattered at 500' AGL
Conditions
  • Fog
Becoming Jan-22 @ 02:00 - Jan-22 @ 03:00
Wind Visibility
30° at 4 knots 998 meters
Clouds
  • Few at 300' AGL
  • Scattered at 700' AGL
Conditions
  • Mist
Becoming Jan-22 @ 03:00 - Jan-23 @ 00:00
Wind Visibility
30° at 4 knots 3,492 meters
Clouds
  • Scattered at 4,000' AGL
Conditions
  • Mist